Time;durP1;ratioP1;P1;durP2;ratioP2;P2;SDS_P1;SDS_P2;PMS_P1;PMS_P2;Temp;Humidity;BMP_temperature;BMP_pressure;BME280_temperature;BME280_humidity;BME280_pressure;Samples;Min_cycle;Max_cycle;Signal;HPM_P1;HPM_P2
2023/08/12 00:02:13;;;;;;;3.35;0.60;;;;;;;20.79;75.88;101136.84;7361666;19;20023;-62
2023/08/12 00:04:40;;;;;;;5.43;1.17;;;;;;;20.79;76.55;101137.66;7361223;19;20016;-62
2023/08/12 00:07:07;;;;;;;6.55;0.65;;;;;;;20.78;77.20;101133.34;7362959;19;20032;-63
2023/08/12 00:09:42;;;;;;;3.72;0.60;;;;;;;20.76;76.54;101138.09;7360251;19;20375;-62
2023/08/12 00:12:09;;;;;;;4.53;0.80;;;;;;;20.73;76.57;101135.00;7355835;19;20014;-63
2023/08/12 00:14:36;;;;;;;6.95;0.90;;;;;;;20.73;76.59;101149.19;7361524;19;20035;-64
2023/08/12 00:17:03;;;;;;;5.85;0.70;;;;;;;20.72;76.54;101139.56;7356240;19;20423;-64
2023/08/12 00:19:36;;;;;;;5.40;1.30;;;;;;;20.69;76.54;101129.28;7360205;19;20040;-63
2023/08/12 00:22:12;;;;;;;5.43;0.82;;;;;;;20.66;76.39;101126.19;7357835;19;20006;-63
2023/08/12 00:24:40;;;;;;;6.65;1.00;;;;;;;20.63;77.22;101124.75;7361094;19;20015;-62
2023/08/12 00:27:08;;;;;;;5.43;0.60;;;;;;;20.62;77.16;101133.81;7356370;19;20018;-61
2023/08/12 00:29:46;;;;;;;4.28;0.65;;;;;;;20.62;77.51;101120.44;7360598;19;21032;-63
2023/08/12 00:32:13;;;;;;;7.80;0.75;;;;;;;20.61;76.61;101118.00;7358757;19;20035;-63
2023/08/12 00:34:43;;;;;;;10.40;1.60;;;;;;;20.61;75.90;101118.00;7358964;19;20639;-63
2023/08/12 00:37:10;;;;;;;5.05;0.75;;;;;;;20.60;76.99;101111.81;7359075;19;20010;-63
2023/08/12 00:39:40;;;;;;;5.38;0.90;;;;;;;20.60;76.24;101103.78;7360827;19;20049;-63
2023/08/12 00:42:07;;;;;;;6.13;0.80;;;;;;;20.55;75.97;101108.97;7357505;19;20010;-62
2023/08/12 00:44:34;;;;;;;6.55;0.70;;;;;;;20.53;76.15;101110.19;7359436;19;20025;-63
2023/08/12 00:47:02;;;;;;;7.60;0.60;;;;;;;20.44;76.08;101115.78;7356515;19;20030;-63
2023/08/12 00:49:43;;;;;;;4.85;0.70;;;;;;;20.41;77.15;101115.38;7359774;19;20146;-63
2023/08/12 00:52:14;;;;;;;4.90;0.55;;;;;;;20.38;77.30;101115.78;7357401;19;20018;-63
2023/08/12 00:54:42;;;;;;;5.38;0.65;;;;;;;20.39;76.73;101109.41;7357082;19;20650;-63
2023/08/12 00:57:09;;;;;;;6.68;0.60;;;;;;;20.39;76.82;101109.41;7357046;19;20082;-63
2023/08/12 00:59:49;;;;;;;4.35;0.60;;;;;;;20.34;76.52;101110.06;7357443;19;20078;-63
2023/08/12 01:02:16;;;;;;;7.53;0.73;;;;;;;20.27;76.94;101101.19;7359999;19;20018;-63
2023/08/12 01:05:02;;;;;;;5.47;0.77;;;;;;;20.26;77.16;101101.41;7356458;19;20019;-63
2023/08/12 01:07:29;;;;;;;11.85;0.85;;;;;;;20.23;77.39;101099.13;7356293;19;20013;-63
2023/08/12 01:09:56;;;;;;;8.98;0.77;;;;;;;20.24;77.76;101095.44;7359650;19;20572;-63
2023/08/12 01:12:28;;;;;;;5.68;0.60;;;;;;;20.23;77.68;101102.63;7354963;19;20025;-62
2023/08/12 01:15:07;;;;;;;8.25;0.65;;;;;;;20.22;77.71;101105.50;7359798;19;20015;-62
2023/08/12 01:17:37;;;;;;;5.90;0.68;;;;;;;20.18;77.62;101096.28;7357491;19;20689;-62
2023/08/12 01:20:13;;;;;;;4.82;0.73;;;;;;;20.14;78.37;101093.22;7360049;19;20153;-62
2023/08/12 01:22:44;;;;;;;6.53;1.73;;;;;;;20.13;77.75;101093.41;7361339;19;20018;-63
2023/08/12 01:25:11;;;;;;;5.45;0.88;;;;;;;20.15;78.49;101086.00;7359369;19;20085;-63
2023/08/12 01:27:38;;;;;;;4.38;0.80;;;;;;;20.13;78.52;101088.06;7357003;19;20538;-62
2023/08/12 01:30:07;;;;;;;6.00;1.20;;;;;;;20.14;79.22;101089.72;7355500;19;20031;-63
2023/08/12 01:32:55;;;;;;;3.58;0.80;;;;;;;20.13;79.87;101086.22;7356058;19;20111;-61
2023/08/12 01:35:30;;;;;;;5.57;1.98;;;;;;;20.04;78.59;101093.63;7357537;19;20819;-63
2023/08/12 01:37:59;;;;;;;8.48;0.70;;;;;;;19.97;79.54;101087.47;7361857;19;20511;-63
2023/08/12 01:40:29;;;;;;;4.05;0.88;;;;;;;19.89;79.59;101084.19;7362369;19;20028;-62
2023/08/12 01:42:56;;;;;;;7.05;1.00;;;;;;;19.83;79.99;101085.84;7364644;19;20451;-62
2023/08/12 01:45:23;;;;;;;3.88;0.70;;;;;;;19.87;81.11;101092.41;7363413;19;20031;-62
2023/08/12 01:47:51;;;;;;;7.10;0.80;;;;;;;19.90;80.90;101083.19;7364914;19;20128;-63
2023/08/12 01:50:19;;;;;;;6.50;1.02;;;;;;;19.89;80.92;101087.69;7363396;19;20031;-62
2023/08/12 01:52:46;;;;;;;4.00;1.13;;;;;;;19.86;80.96;101084.63;7358785;19;20051;-63
2023/08/12 01:55:13;;;;;;;8.35;1.10;;;;;;;19.83;80.67;101085.84;7361682;19;20094;-62
2023/08/12 01:57:40;;;;;;;8.65;1.55;;;;;;;19.81;81.35;101087.91;7361551;19;21071;-63
2023/08/12 02:00:08;;;;;;;5.25;0.77;;;;;;;19.82;81.66;101086.06;7364588;19;20290;-63
2023/08/12 02:02:35;;;;;;;5.85;0.93;;;;;;;19.77;81.05;101092.00;7362660;19;20015;-63
2023/08/12 02:05:02;;;;;;;5.70;0.80;;;;;;;19.73;81.24;101088.13;7365179;19;20010;-63
2023/08/12 02:07:30;;;;;;;5.20;1.05;;;;;;;19.74;82.14;101088.94;7365964;19;20029;-62
2023/08/12 02:09:57;;;;;;;5.40;0.90;;;;;;;19.75;82.24;101088.75;7356568;19;20400;-63
2023/08/12 02:12:24;;;;;;;9.35;1.80;;;;;;;19.70;81.91;101080.53;7357775;19;20014;-63
2023/08/12 02:14:51;;;;;;;5.05;1.13;;;;;;;19.69;83.48;101080.72;7363009;19;20018;-62
2023/08/12 02:17:18;;;;;;;8.25;1.35;;;;;;;19.66;82.62;101076.59;7363277;19;20029;-63
2023/08/12 02:19:44;;;;;;;4.47;1.38;;;;;;;19.62;82.54;101078.06;7364720;19;20086;-63
2023/08/12 02:22:11;;;;;;;6.88;1.73;;;;;;;19.52;83.06;101073.13;7365199;19;20059;-62
2023/08/12 02:24:38;;;;;;;8.02;1.73;;;;;;;19.44;83.84;101072.47;7362848;19;20006;-63
2023/08/12 02:27:05;;;;;;;10.57;2.00;;;;;;;19.41;84.40;101073.69;7361738;19;20018;-63
2023/08/12 02:29:33;;;;;;;7.72;2.08;;;;;;;19.39;84.80;101070.44;7362790;19;20014;-63
2023/08/12 02:32:00;;;;;;;5.05;1.35;;;;;;;19.39;84.76;101074.94;7363281;19;20511;-63
2023/08/12 02:34:27;;;;;;;6.53;1.63;;;;;;;19.38;84.71;101082.13;7363785;19;21044;-63
2023/08/12 02:36:54;;;;;;;6.80;1.65;;;;;;;19.39;85.26;101072.28;7362503;19;20022;-63
2023/08/12 02:39:21;;;;;;;6.65;2.38;;;;;;;19.34;85.62;101080.91;7361915;19;20018;-62
2023/08/12 02:41:48;;;;;;;6.53;1.95;;;;;;;19.36;86.01;101083.34;7363863;19;20590;-63
2023/08/12 02:44:15;;;;;;;8.27;2.00;;;;;;;19.33;86.26;101089.94;7360105;19;20042;-63
2023/08/12 02:46:42;;;;;;;7.53;2.00;;;;;;;19.31;85.71;101099.97;7362594;19;20024;-64
2023/08/12 02:49:09;;;;;;;7.57;1.80;;;;;;;19.20;85.63;101097.88;7355786;19;20014;-62
2023/08/12 02:51:36;;;;;;;8.68;2.42;;;;;;;19.14;86.53;101093.38;7362015;19;20018;-62
2023/08/12 02:54:03;;;;;;;8.82;2.40;;;;;;;19.10;87.05;101100.94;7363611;19;20097;-62
2023/08/12 02:56:30;;;;;;;10.48;2.65;;;;;;;19.12;87.48;101092.75;7356824;19;20451;-63
2023/08/12 02:58:57;;;;;;;7.78;2.25;;;;;;;19.11;87.01;101099.94;7358790;19;20010;-63
2023/08/12 03:01:24;;;;;;;6.53;2.20;;;;;;;19.09;86.90;101082.50;7359444;19;20554;-63
2023/08/12 03:03:51;;;;;;;11.60;2.85;;;;;;;18.97;87.42;101090.25;7364949;19;20481;-62
2023/08/12 03:06:18;;;;;;;7.07;2.60;;;;;;;18.91;87.49;101085.72;7359445;19;20086;-62
2023/08/12 03:08:45;;;;;;;9.90;2.35;;;;;;;18.91;88.35;101087.56;7363141;19;20040;-64
2023/08/12 03:11:12;;;;;;;9.68;2.53;;;;;;;18.95;88.76;101097.63;7360007;19;20027;-62
2023/08/12 03:13:39;;;;;;;10.75;2.85;;;;;;;18.98;88.23;101099.09;7361362;19;20022;-64
2023/08/12 03:16:12;;;;;;;14.68;3.13;;;;;;;18.96;88.22;101095.78;7361176;19;20014;-63
2023/08/12 03:18:39;;;;;;;11.18;2.53;;;;;;;18.99;88.59;101098.06;7360868;19;20065;-63
2023/08/12 03:21:07;;;;;;;6.82;2.47;;;;;;;18.93;88.48;101093.53;7361919;19;20022;-61
2023/08/12 03:23:36;;;;;;;8.35;2.22;;;;;;;18.92;88.57;101082.03;7363650;19;20082;-63
2023/08/12 03:26:04;;;;;;;8.15;2.30;;;;;;;18.90;88.66;101081.41;7362494;19;20398;-62
2023/08/12 03:28:31;;;;;;;8.52;2.17;;;;;;;18.90;88.71;101092.06;7361674;19;20106;-63
2023/08/12 03:30:58;;;;;;;7.60;2.47;;;;;;;18.90;88.44;101091.25;7361467;19;20117;-61
2023/08/12 03:33:25;;;;;;;11.73;1.95;;;;;;;18.91;88.42;101088.41;7362537;19;20043;-62
2023/08/12 03:35:52;;;;;;;13.65;3.33;;;;;;;18.95;88.67;101080.81;7364620;19;20017;-63
2023/08/12 03:38:19;;;;;;;8.98;2.25;;;;;;;18.95;88.71;101086.97;7362273;19;20031;-63
2023/08/12 03:40:46;;;;;;;9.98;2.30;;;;;;;18.95;88.41;101080.81;7359190;19;20121;-63
2023/08/12 03:43:13;;;;;;;6.68;1.73;;;;;;;18.91;88.08;101084.91;7360438;19;20364;-62
2023/08/12 03:45:44;;;;;;;8.20;2.30;;;;;;;18.94;87.99;101079.19;7360244;19;20202;-64
2023/08/12 03:48:11;;;;;;;9.88;1.58;;;;;;;18.93;87.76;101078.34;7360890;19;20019;-62
2023/08/12 03:50:39;;;;;;;11.43;3.05;;;;;;;18.93;88.05;101075.69;7362978;19;20018;-63
2023/08/12 03:53:06;;;;;;;9.23;2.10;;;;;;;18.91;88.07;101067.06;7362440;19;20046;-62
2023/08/12 03:55:33;;;;;;;6.07;1.80;;;;;;;18.92;88.33;101071.38;7360377;19;20363;-63
2023/08/12 03:58:01;;;;;;;7.65;1.95;;;;;;;18.92;87.55;101074.03;7356992;19;20532;-63
2023/08/12 04:00:28;;;;;;;8.02;1.90;;;;;;;18.95;87.83;101065.63;7357617;19;20014;-63
2023/08/12 04:02:55;;;;;;;8.77;2.05;;;;;;;18.93;87.76;101067.69;7360568;19;20014;-63
2023/08/12 04:05:23;;;;;;;6.55;1.80;;;;;;;18.89;87.69;101060.28;7361029;19;20708;-62
2023/08/12 04:08:05;;;;;;;9.30;2.90;;;;;;;18.85;88.32;101065.19;7361045;19;20086;-62
2023/08/12 04:10:32;;;;;;;7.15;1.80;;;;;;;18.84;88.51;101060.06;7359601;19;20031;-62
2023/08/12 04:12:59;;;;;;;10.32;1.85;;;;;;;18.83;87.63;101053.91;7354542;19;20507;-63
2023/08/12 04:15:26;;;;;;;14.00;2.03;;;;;;;18.78;87.66;101057.19;7358304;19;20019;-63
2023/08/12 04:18:07;;;;;;;10.20;1.85;;;;;;;18.78;87.59;101043.84;7361011;19;20017;-63
2023/08/12 04:20:34;;;;;;;10.25;2.00;;;;;;;18.76;87.55;101050.41;7360016;19;20010;-62
2023/08/12 04:23:01;;;;;;;10.75;1.90;;;;;;;18.64;88.15;101052.81;7361947;19;21609;-62
2023/08/12 04:25:28;;;;;;;6.82;2.03;;;;;;;18.61;88.47;101055.06;7359463;19;20086;-62
2023/08/12 04:27:58;;;;;;;9.32;1.95;;;;;;;18.60;89.23;101048.91;7358329;19;20044;-64
2023/08/12 04:30:26;;;;;;;6.95;2.30;;;;;;;18.59;88.92;101049.94;7358619;19;20090;-62
2023/08/12 04:32:53;;;;;;;9.60;2.03;;;;;;;18.60;88.51;101037.41;7359256;19;20060;-62
2023/08/12 04:35:20;;;;;;;11.45;2.30;;;;;;;18.61;88.21;101041.75;7359725;19;20079;-63
2023/08/12 04:38:08;;;;;;;11.40;2.47;;;;;;;18.61;88.59;101039.91;7360925;19;20547;-62
2023/08/12 04:40:39;;;;;;;10.70;2.15;;;;;;;18.60;88.44;101040.91;7358075;19;20344;-63
2023/08/12 04:43:08;;;;;;;17.00;2.78;;;;;;;18.60;88.40;101040.91;7358654;19;20022;-63
2023/08/12 04:45:35;;;;;;;10.50;2.30;;;;;;;18.52;88.46;101034.91;7358579;19;20090;-64
2023/08/12 04:48:06;;;;;;;9.02;2.67;;;;;;;18.44;88.74;101038.56;7359495;19;20025;-64
2023/08/12 04:50:34;;;;;;;12.73;2.83;;;;;;;18.42;88.79;101018.47;7359442;19;20014;-62
2023/08/12 04:53:01;;;;;;;9.98;2.70;;;;;;;18.42;89.35;101024.63;7359649;19;21935;-63
2023/08/12 04:55:29;;;;;;;10.32;2.38;;;;;;;18.44;89.76;101027.09;7360012;19;20985;-63
2023/08/12 04:57:58;;;;;;;8.43;2.42;;;;;;;18.46;89.45;101030.38;7353549;19;20121;-62
2023/08/12 05:00:25;;;;;;;11.52;2.35;;;;;;;18.45;89.26;101028.72;7357497;19;20022;-63
2023/08/12 05:02:56;;;;;;;13.45;2.95;;;;;;;18.46;89.17;101028.53;7359049;19;20015;-63
2023/08/12 05:05:23;;;;;;;10.95;2.90;;;;;;;18.46;89.07;101027.72;7358748;19;20279;-63
2023/08/12 05:08:01;;;;;;;12.32;2.80;;;;;;;18.45;89.30;101015.41;7359236;19;20038;-62
2023/08/12 05:10:29;;;;;;;14.15;3.20;;;;;;;18.42;89.40;101005.97;7357143;19;20573;-63
2023/08/12 05:12:58;;;;;;;10.27;2.55;;;;;;;18.45;89.67;101016.22;7356975;19;20521;-63
2023/08/12 05:15:28;;;;;;;14.75;3.55;;;;;;;18.46;89.26;101009.88;7361907;19;20022;-63
2023/08/12 05:18:07;;;;;;;13.85;3.53;;;;;;;18.47;89.56;101014.19;7365441;19;20021;-62
2023/08/12 05:20:34;;;;;;;14.77;4.10;;;;;;;18.49;89.34;101017.47;7365336;19;20066;-62
2023/08/12 05:23:01;;;;;;;17.50;5.07;;;;;;;18.51;89.25;101019.94;7366986;19;20464;-62
2023/08/12 05:25:28;;;;;;;13.32;5.10;;;;;;;18.50;89.19;101016.44;7366131;19;20375;-62
2023/08/12 05:27:57;;;;;;;12.45;5.45;;;;;;;18.49;89.30;101020.13;7364159;19;20031;-63
2023/08/12 05:30:25;;;;;;;14.65;4.65;;;;;;;18.51;89.74;101026.09;7366519;19;20027;-63
2023/08/12 05:32:52;;;;;;;20.02;5.43;;;;;;;18.55;89.60;101023.88;7365293;19;20046;-63
2023/08/12 05:35:19;;;;;;;20.95;5.68;;;;;;;18.57;89.28;101024.50;7364671;19;20014;-63
2023/08/12 05:37:46;;;;;;;19.77;5.55;;;;;;;18.59;89.24;101020.59;7363856;19;20373;-63
2023/08/12 05:40:19;;;;;;;15.90;4.97;;;;;;;18.60;89.02;101016.91;7366368;19;20018;-63
2023/08/12 05:42:46;;;;;;;17.13;5.38;;;;;;;18.61;88.80;101005.25;7363835;19;20077;-64
2023/08/12 05:45:14;;;;;;;13.77;5.30;;;;;;;18.60;89.05;101010.75;7364242;19;20031;-63
2023/08/12 05:47:41;;;;;;;17.92;5.60;;;;;;;18.62;89.38;101020.22;7366942;19;20476;-64
2023/08/12 05:50:08;;;;;;;13.07;5.57;;;;;;;18.66;89.29;101008.13;7365256;19;20018;-64
2023/08/12 05:52:35;;;;;;;15.38;5.03;;;;;;;18.70;89.00;101017.38;7366061;19;20401;-63
2023/08/12 05:55:02;;;;;;;13.45;4.80;;;;;;;18.71;88.70;101024.34;7365992;19;20019;-63
2023/08/12 05:57:29;;;;;;;16.33;4.75;;;;;;;18.73;88.78;101021.47;7359982;19;20014;-63
2023/08/12 05:59:56;;;;;;;14.40;4.55;;;;;;;18.75;88.64;101011.41;7357981;19;20014;-63
2023/08/12 06:02:25;;;;;;;19.77;5.53;;;;;;;18.76;88.51;101008.56;7364278;19;20038;-63
2023/08/12 06:04:52;;;;;;;14.82;4.50;;;;;;;18.84;89.28;101009.41;7367033;19;20023;-64
2023/08/12 06:07:19;;;;;;;13.52;4.40;;;;;;;18.89;88.77;101006.97;7363330;19;20110;-62
2023/08/12 06:09:46;;;;;;;17.50;4.40;;;;;;;18.93;87.91;101006.34;7363145;19;20090;-63
2023/08/12 06:12:13;;;;;;;17.70;4.28;;;;;;;18.93;87.95;101014.34;7362299;19;20833;-65
2023/08/12 06:14:40;;;;;;;11.50;3.78;;;;;;;18.95;88.04;101011.47;7364654;19;20014;-64
2023/08/12 06:17:07;;;;;;;15.93;4.32;;;;;;;18.95;88.22;101011.47;7365099;19;20503;-63
2023/08/12 06:19:35;;;;;;;15.82;4.18;;;;;;;18.97;88.53;101014.75;7363919;19;20045;-63
2023/08/12 06:22:03;;;;;;;11.32;3.75;;;;;;;19.03;87.80;101012.09;7365214;19;20015;-63
2023/08/12 06:24:30;;;;;;;17.65;3.90;;;;;;;19.04;87.49;101011.09;7362787;19;20015;-62
2023/08/12 06:26:57;;;;;;;10.55;3.22;;;;;;;19.02;87.42;101018.47;7360133;19;20059;-63
2023/08/12 06:29:24;;;;;;;17.13;4.05;;;;;;;19.06;87.68;101016.19;7363878;19;20364;-63
2023/08/12 06:31:52;;;;;;;13.38;3.80;;;;;;;19.07;87.42;101015.19;7364262;19;20053;-64
2023/08/12 06:34:20;;;;;;;13.45;3.80;;;;;;;19.11;87.78;101025.22;7364794;19;20015;-62
2023/08/12 06:36:47;;;;;;;12.15;2.95;;;;;;;19.16;88.30;101019.28;7362884;19;20010;-63
2023/08/12 06:39:13;;;;;;;15.15;2.63;;;;;;;19.22;87.70;101016.63;7363828;19;20202;-64
2023/08/12 06:41:40;;;;;;;12.13;2.78;;;;;;;19.25;87.05;101012.72;7361280;19;20422;-63
2023/08/12 06:44:07;;;;;;;16.67;3.33;;;;;;;19.30;87.43;101004.13;7360466;19;20018;-63
2023/08/12 06:46:34;;;;;;;12.57;2.78;;;;;;;19.35;87.31;101002.44;7363060;19;20511;-63
2023/08/12 06:49:01;;;;;;;15.98;2.70;;;;;;;19.41;87.02;101012.31;7365220;19;20126;-64
2023/08/12 06:51:28;;;;;;;11.30;3.15;;;;;;;19.50;87.12;101007.63;7364343;19;21606;-64
2023/08/12 06:53:55;;;;;;;16.98;2.58;;;;;;;19.56;86.41;101007.59;7366183;19;20022;-63
2023/08/12 06:56:22;;;;;;;15.52;2.80;;;;;;;19.61;86.04;101005.13;7359054;19;20056;-63
2023/08/12 06:58:49;;;;;;;13.43;2.70;;;;;;;19.69;86.27;101003.28;7356747;19;20030;-63
2023/08/12 07:01:16;;;;;;;12.13;1.95;;;;;;;19.71;85.89;101009.25;7353902;19;20030;-63
2023/08/12 07:03:43;;;;;;;14.20;2.25;;;;;;;19.76;85.61;101007.56;7362725;19;20014;-62
2023/08/12 07:06:11;;;;;;;14.50;2.17;;;;;;;19.84;84.66;101004.69;7359349;19;20026;-62
2023/08/12 07:08:38;;;;;;;12.05;2.20;;;;;;;19.90;84.29;101013.72;7361373;19;20032;-64
2023/08/12 07:11:05;;;;;;;10.35;1.73;;;;;;;19.94;84.40;101013.09;7361565;19;21863;-63
2023/08/12 07:13:33;;;;;;;12.75;2.38;;;;;;;19.93;84.66;101016.78;7361938;19;20094;-63
2023/08/12 07:16:00;;;;;;;9.52;2.10;;;;;;;19.97;83.77;101022.53;7358488;19;20018;-64
2023/08/12 07:18:29;;;;;;;16.65;1.73;;;;;;;19.94;82.79;101018.44;7363630;19;20633;-64
2023/08/12 07:20:58;;;;;;;14.50;2.03;;;;;;;19.93;82.86;101016.78;7363094;19;20033;-64
2023/08/12 07:23:25;;;;;;;13.30;2.67;;;;;;;19.94;83.17;101015.78;7364845;19;20018;-64
2023/08/12 07:25:52;;;;;;;10.10;1.83;;;;;;;19.96;82.74;101020.91;7361966;19;20011;-63
2023/08/12 07:28:19;;;;;;;16.13;2.28;;;;;;;19.96;82.84;101024.38;7361183;19;20476;-64
2023/08/12 07:30:48;;;;;;;10.35;1.73;;;;;;;19.96;82.75;101020.91;7362531;19;20102;-63
2023/08/12 07:33:15;;;;;;;12.35;2.03;;;;;;;19.98;82.85;101027.69;7364095;19;20022;-63
2023/08/12 07:35:42;;;;;;;10.50;1.67;;;;;;;20.01;82.41;101016.56;7357888;19;20472;-63
2023/08/12 07:38:10;;;;;;;14.18;2.40;;;;;;;20.10;82.73;101021.69;7363867;19;20042;-63
2023/08/12 07:40:37;;;;;;;17.08;1.98;;;;;;;20.16;82.63;101026.19;7360684;19;20694;-63
2023/08/12 07:43:07;;;;;;;12.48;2.03;;;;;;;20.14;81.06;101023.72;7360320;19;20483;-63
2023/08/12 07:45:34;;;;;;;12.25;1.95;;;;;;;20.10;81.06;101019.00;7361009;19;20026;-63
2023/08/12 07:48:05;;;;;;;13.75;2.00;;;;;;;20.06;81.41;101018.63;7363324;19;20086;-63
2023/08/12 07:50:32;;;;;;;17.20;2.50;;;;;;;20.06;81.93;101015.94;7363544;19;20057;-63
2023/08/12 07:53:00;;;;;;;15.27;2.72;;;;;;;20.11;82.18;101024.16;7362180;19;20028;-64
2023/08/12 07:55:28;;;;;;;9.30;1.73;;;;;;;20.34;81.19;101015.66;7361714;19;20385;-62
2023/08/12 07:57:59;;;;;;;16.42;2.10;;;;;;;20.63;79.41;101007.09;7359666;19;21840;-63
2023/08/12 08:00:27;;;;;;;10.43;1.65;;;;;;;20.89;77.29;101006.09;7355535;19;20083;-62
2023/08/12 08:02:54;;;;;;;10.68;1.98;;;;;;;20.95;75.50;101010.59;7358564;19;20017;-62
2023/08/12 08:05:21;;;;;;;9.40;1.63;;;;;;;20.85;76.14;101005.72;7361372;19;20090;-64
2023/08/12 08:08:15;;;;;;;12.35;1.80;;;;;;;20.84;76.68;101020.13;7361128;19;20022;-64
2023/08/12 08:10:42;;;;;;;11.18;1.60;;;;;;;20.82;76.25;101008.84;7359271;19;20501;-63
2023/08/12 08:13:09;;;;;;;12.85;1.77;;;;;;;20.83;76.74;101015.00;7357342;19;20048;-62
2023/08/12 08:15:37;;;;;;;10.70;1.65;;;;;;;20.84;77.01;101004.06;7359881;19;20035;-63
2023/08/12 08:18:23;;;;;;;9.80;1.98;;;;;;;20.88;77.07;100999.94;7359621;19;20013;-62
2023/08/12 08:20:50;;;;;;;9.38;1.40;;;;;;;20.93;76.63;101007.31;7359031;19;20026;-63
2023/08/12 08:23:17;;;;;;;18.95;1.38;;;;;;;20.95;75.71;100999.06;7361655;19;20203;-63
2023/08/12 08:25:45;;;;;;;15.95;1.58;;;;;;;20.91;74.78;100994.16;7360773;19;20018;-63
2023/08/12 08:28:12;;;;;;;14.30;1.40;;;;;;;20.90;75.22;101005.06;7357955;19;20097;-63
2023/08/12 08:30:39;;;;;;;12.32;1.55;;;;;;;20.90;74.41;101002.41;7356687;19;20061;-62
2023/08/12 08:33:06;;;;;;;12.10;1.25;;;;;;;20.90;74.97;101007.75;7358008;19;20014;-63
2023/08/12 08:35:34;;;;;;;14.65;2.10;;;;;;;20.88;74.97;100997.25;7360217;19;20014;-63
2023/08/12 08:38:14;;;;;;;9.43;1.23;;;;;;;20.92;74.90;101006.50;7360716;19;20046;-62
2023/08/12 08:40:42;;;;;;;13.57;1.50;;;;;;;20.96;73.43;100996.19;7358451;19;20060;-63
2023/08/12 08:43:14;;;;;;;11.15;1.30;;;;;;;21.03;74.28;100996.94;7358187;19;20479;-63
2023/08/12 08:45:44;;;;;;;14.35;1.85;;;;;;;21.10;74.99;100999.56;7358639;19;20237;-62
2023/08/12 08:48:12;;;;;;;9.68;1.10;;;;;;;21.12;72.66;100994.84;7359683;19;20029;-62
2023/08/12 08:50:40;;;;;;;11.82;0.90;;;;;;;21.13;72.24;100996.50;7358107;19;20093;-63
2023/08/12 08:53:07;;;;;;;10.60;1.10;;;;;;;21.14;72.32;100992.78;7356670;19;20014;-65
2023/08/12 08:55:34;;;;;;;8.55;1.20;;;;;;;21.09;71.75;100981.88;7359044;19;20078;-63
2023/08/12 08:58:10;;;;;;;9.45;1.35;;;;;;;21.10;72.79;100980.84;7357027;19;20102;-65
2023/08/12 09:00:47;;;;;;;12.35;1.90;;;;;;;21.11;72.77;100983.31;7353657;19;20674;-63
2023/08/12 09:03:15;;;;;;;10.65;1.38;;;;;;;21.10;73.23;100983.53;7356234;19;20693;-62
2023/08/12 09:05:43;;;;;;;7.35;0.85;;;;;;;21.09;72.73;100987.22;7360607;19;20042;-63
2023/08/12 09:08:21;;;;;;;8.48;1.10;;;;;;;21.10;71.58;100984.34;7355622;19;20070;-64
2023/08/12 09:10:48;;;;;;;5.68;1.00;;;;;;;21.12;72.74;100984.97;7357892;19;20027;-63
2023/08/12 09:13:18;;;;;;;12.95;1.10;;;;;;;21.16;72.43;100975.47;7351616;19;20018;-63
2023/08/12 09:15:45;;;;;;;11.10;2.42;;;;;;;21.21;71.38;100985.53;7357527;19;20633;-62
2023/08/12 09:18:13;;;;;;;13.93;0.88;;;;;;;21.24;69.89;100979.72;7354063;19;20018;-63
2023/08/12 09:20:41;;;;;;;10.38;1.05;;;;;;;21.30;68.94;100984.22;7358209;19;20022;-62
2023/08/12 09:23:10;;;;;;;14.30;1.13;;;;;;;21.34;68.53;100983.53;7359487;19;20046;-63
2023/08/12 09:25:45;;;;;;;14.68;1.33;;;;;;;21.31;67.69;100981.31;7356780;19;20018;-63
2023/08/12 09:28:16;;;;;;;9.75;1.02;;;;;;;21.35;69.70;100981.69;7357437;19;20018;-63
2023/08/12 09:30:49;;;;;;;7.55;0.60;;;;;;;21.41;68.05;100975.47;7355006;19;20154;-63
2023/08/12 09:33:24;;;;;;;10.52;0.60;;;;;;;21.40;66.42;100976.50;7358635;19;20038;-64
2023/08/12 09:35:52;;;;;;;10.00;1.00;;;;;;;21.42;67.31;100974.44;7358721;19;20018;-62
2023/08/12 09:38:20;;;;;;;7.80;0.55;;;;;;;21.48;67.71;100988.81;7358597;19;20010;-63
2023/08/12 09:40:47;;;;;;;8.07;1.40;;;;;;;21.48;67.69;100978.91;7356002;19;20010;-63
2023/08/12 09:43:16;;;;;;;13.25;1.45;;;;;;;21.47;67.93;100982.63;7355767;19;20022;-63
2023/08/12 09:45:45;;;;;;;10.07;0.77;;;;;;;21.43;66.62;100985.97;7357868;19;20383;-62
2023/08/12 09:48:20;;;;;;;10.25;1.50;;;;;;;21.41;67.18;100986.19;7357906;19;20010;-64
2023/08/12 09:50:47;;;;;;;10.70;0.90;;;;;;;21.42;67.49;100985.13;7353074;19;20673;-63
2023/08/12 09:53:15;;;;;;;10.82;0.80;;;;;;;21.49;68.01;100983.19;7358220;19;20025;-63
2023/08/12 09:55:43;;;;;;;12.07;1.10;;;;;;;21.53;67.00;100981.75;7353765;19;21240;-63
2023/08/12 09:58:16;;;;;;;9.85;0.85;;;;;;;21.57;66.75;100980.25;7356306;19;20429;-64
2023/08/12 10:00:45;;;;;;;9.27;0.73;;;;;;;21.59;66.34;100986.19;7360465;19;20430;-63
2023/08/12 10:03:15;;;;;;;15.25;1.10;;;;;;;21.61;65.78;100978.78;7358751;19;20014;-63
2023/08/12 10:05:43;;;;;;;11.38;0.88;;;;;;;21.60;65.82;100990.53;7364228;19;20028;-63
2023/08/12 10:08:14;;;;;;;9.25;0.93;;;;;;;21.58;65.42;100987.25;7366502;19;20010;-64
2023/08/12 10:10:41;;;;;;;7.68;1.20;;;;;;;21.60;66.38;100987.00;7359706;19;20018;-64
2023/08/12 10:13:10;;;;;;;9.77;1.10;;;;;;;21.57;64.72;100988.28;7356581;19;20018;-64
2023/08/12 10:15:37;;;;;;;13.80;2.17;;;;;;;21.61;65.58;100991.34;7362961;19;20037;-63
2023/08/12 10:18:07;;;;;;;10.23;1.00;;;;;;;21.61;65.87;100981.44;7363198;19;20971;-62
2023/08/12 10:20:38;;;;;;;13.90;1.35;;;;;;;21.66;66.67;100981.59;7360436;19;20014;-64
2023/08/12 10:23:07;;;;;;;10.55;0.90;;;;;;;21.66;66.37;100988.81;7365076;19;20010;-64
2023/08/12 10:25:37;;;;;;;8.15;0.80;;;;;;;21.64;66.47;100989.03;7360247;19;20010;-64
2023/08/12 10:28:07;;;;;;;10.13;1.48;;;;;;;21.64;66.60;100985.53;7359470;19;20031;-63
2023/08/12 10:30:35;;;;;;;10.65;1.98;;;;;;;21.61;66.66;100988.66;7363361;19;20698;-63
2023/08/12 10:33:03;;;;;;;13.73;0.77;;;;;;;21.56;64.45;100983.97;7362150;19;20043;-63
2023/08/12 10:35:47;;;;;;;6.90;0.95;;;;;;;21.52;65.64;100979.28;7360963;19;20507;-64
2023/08/12 10:38:18;;;;;;;12.98;1.75;;;;;;;21.52;65.74;100984.63;7364270;19;20064;-64
2023/08/12 10:40:46;;;;;;;16.60;2.42;;;;;;;21.51;65.89;100975.78;7361519;19;20018;-63
2023/08/12 10:43:14;;;;;;;12.35;0.82;;;;;;;21.51;65.66;100985.66;7358266;19;20107;-63
2023/08/12 10:45:46;;;;;;;10.93;0.90;;;;;;;21.55;66.53;100976.97;7365725;19;20034;-63
2023/08/12 10:48:19;;;;;;;11.45;1.00;;;;;;;21.57;66.08;100977.56;7364757;19;20038;-63
2023/08/12 10:50:49;;;;;;;6.28;0.50;;;;;;;21.62;65.95;100977.72;7362249;19;20026;-62
2023/08/12 10:53:33;;;;;;;7.00;0.80;;;;;;;21.65;65.59;100979.97;7360276;19;20098;-63
2023/08/12 10:56:03;;;;;;;9.65;0.60;;;;;;;21.69;65.64;100970.44;7360634;19;21569;-63
2023/08/12 10:58:47;;;;;;;9.98;1.65;;;;;;;21.73;66.23;100965.47;7361854;19;22075;-63
2023/08/12 11:01:17;;;;;;;6.40;0.60;;;;;;;21.77;65.48;100969.34;7359541;19;20525;-62
2023/08/12 11:03:46;;;;;;;8.60;0.90;;;;;;;21.81;65.81;100964.34;7359644;19;20024;-63
2023/08/12 11:06:29;;;;;;;10.07;1.02;;;;;;;21.87;66.22;100960.78;7355078;19;20014;-63
2023/08/12 11:09:17;;;;;;;8.65;1.02;;;;;;;21.89;65.82;100959.50;7353985;19;20078;-63
2023/08/12 11:11:45;;;;;;;9.52;1.00;;;;;;;21.91;65.58;100962.78;7356997;19;20149;-63
2023/08/12 11:14:15;;;;;;;9.10;1.10;;;;;;;21.94;66.13;100967.72;7360144;19;20968;-63
2023/08/12 11:17:13;;;;;;;12.82;2.25;;;;;;;21.96;66.39;100959.47;7362637;19;20014;-63
2023/08/12 11:19:42;;;;;;;11.63;1.20;;;;;;;21.93;65.71;100958.03;7362410;19;20078;-64
2023/08/12 11:22:12;;;;;;;7.75;0.60;;;;;;;21.92;66.20;100953.69;7362271;19;20006;-62
2023/08/12 11:24:43;;;;;;;8.75;0.88;;;;;;;21.89;66.56;100948.78;7362481;19;20098;-63
2023/08/12 11:27:11;;;;;;;10.50;1.17;;;;;;;21.87;65.81;100952.72;7359462;19;20146;-63
2023/08/12 11:29:38;;;;;;;10.60;0.80;;;;;;;21.81;66.19;100967.03;7360962;19;20054;-62
2023/08/12 11:32:06;;;;;;;12.50;1.27;;;;;;;21.82;66.53;100974.03;7362335;19;20023;-63